サルタ の空港の天気 - METARとTAF

サルタ空港 ( SASA / SLA ) - アルゼンチン サルタ州、Salta
飛行場実況気象(Metar)
観測時間04/26 13:00 ART (04/26 16:00 UTC)
風向・風速北北東 2m/s
視程10km以上
天気現象
全天の4割程度の雲 雲底高度 460m
全天の8割程度の雲 雲底高度 3050m
全天の4割程度の雲 雲底高度 6100m
気温17℃
湿度77%
気圧1020hPa
METARSASA 261600Z 02003KT 9999 SCT015 BKN100 SCT200 17/13 Q1020
過去の天気等 Google飛行場航空写真 Wunderground天気予報

過去48時間のMETAR

飛行場予報(TAF)
発表時間: 4/26 08:00 ART (4/26 11:00 UTC)
予報対象時間: 26日9時 ART ~ 27日9時 ART
風向・風速不定 2m/s
視程3500m
天気現象もや
全天の4割程度の雲 雲底高度 240m
全天の8割程度の雲 雲底高度 300m
26日9時 ART ~ 26日12時 ART に徐々に
風向・風速北東 5m/s
視程10km以上
全天の8割程度の雲 雲底高度 300m
全天の8割程度の雲 雲底高度 610m
26日18時 ART ~ 26日21時 ART に徐々に
風向・風速北 3m/s
視程2000m
天気現象霧雨 もや
全天の8割程度の雲 雲底高度 150m
全天を覆う雲 雲底高度 240m
TAF SASA 261100Z 2612/2712 VRB03KT 3500 BR SCT008 BKN010 TX19/2618Z TN10/2710Z
BECMG 2612/2615 05010KT 9999 BKN010 BKN020
BECMG 2621/2700 36005KT 2000 DZ BR BKN005 OVC008